Time;durP1;ratioP1;P1;durP2;ratioP2;P2;SDS_P1;SDS_P2;PMS_P1;PMS_P2;Temp;Humidity;BMP_temperature;BMP_pressure;BME280_temperature;BME280_humidity;BME280_pressure;Samples;Min_cycle;Max_cycle;Signal;HPM_P1;HPM_P2
2021/11/29 00:01:15;;;;;;;9.20;8.40;;;3.40;99.90;;;;;;5012559;28;20647;-84
2021/11/29 00:03:43;;;;;;;10.57;9.50;;;3.30;99.90;;;;;;5014237;28;20204;-82
2021/11/29 00:06:10;;;;;;;11.35;10.25;;;3.30;99.90;;;;;;5019540;28;20285;-83
2021/11/29 00:08:39;;;;;;;10.80;9.15;;;3.30;99.90;;;;;;5016571;28;20669;-82
2021/11/29 00:11:07;;;;;;;11.00;9.40;;;3.30;99.90;;;;;;5015527;28;20196;-82
2021/11/29 00:13:35;;;;;;;9.60;8.80;;;3.30;99.90;;;;;;5020025;28;20283;-83
2021/11/29 00:16:02;;;;;;;10.00;8.70;;;3.30;99.90;;;;;;5017224;28;20205;-83
2021/11/29 00:18:30;;;;;;;8.63;7.85;;;3.20;99.90;;;;;;5014869;28;20207;-83
2021/11/29 00:20:57;;;;;;;9.38;8.55;;;3.20;99.90;;;;;;5014783;28;20206;-82
2021/11/29 00:23:25;;;;;;;9.50;8.65;;;3.20;99.90;;;;;;5018761;28;20283;-83
2021/11/29 00:25:54;;;;;;;10.25;9.15;;;3.20;99.90;;;;;;5017918;28;20230;-83
2021/11/29 00:28:21;;;;;;;10.15;9.10;;;3.20;99.90;;;;;;5013968;28;20227;-86
2021/11/29 00:30:49;;;;;;;10.05;9.15;;;3.20;99.90;;;;;;5013957;28;20214;-82
2021/11/29 00:33:16;;;;;;;10.27;8.50;;;3.20;99.90;;;;;;5020940;28;20204;-84
2021/11/29 00:35:45;;;;;;;10.60;8.50;;;3.20;99.90;;;;;;5019411;28;20198;-83
2021/11/29 00:38:13;;;;;;;12.20;7.90;;;3.20;99.90;;;;;;5018266;28;20616;-82
2021/11/29 00:40:42;;;;;;;9.15;8.23;;;3.20;99.90;;;;;;5015093;28;20206;-83
2021/11/29 00:43:11;;;;;;;11.68;8.95;;;3.20;99.90;;;;;;5017412;28;20202;-83
2021/11/29 00:45:38;;;;;;;9.10;8.05;;;3.10;99.90;;;;;;5015450;28;20286;-83
2021/11/29 00:48:06;;;;;;;9.48;8.68;;;3.10;99.90;;;;;;5018038;28;20318;-85
2021/11/29 00:50:37;;;;;;;11.23;10.02;;;3.10;99.90;;;;;;5017870;28;20612;-82
2021/11/29 00:53:04;;;;;;;10.18;8.70;;;3.10;99.90;;;;;;5015339;28;20195;-82
2021/11/29 00:55:32;;;;;;;10.40;9.27;;;3.10;99.90;;;;;;5019208;28;20195;-84
2021/11/29 00:57:59;;;;;;;11.25;8.60;;;3.10;99.90;;;;;;5018767;28;20183;-83
2021/11/29 01:00:28;;;;;;;9.77;8.77;;;3.10;99.90;;;;;;5016149;28;20229;-83
2021/11/29 01:02:56;;;;;;;8.48;7.75;;;3.10;99.90;;;;;;5021027;28;20294;-82
2021/11/29 01:05:24;;;;;;;10.18;9.18;;;3.10;99.90;;;;;;5023100;28;20562;-85
2021/11/29 01:07:52;;;;;;;9.52;8.73;;;3.00;99.90;;;;;;5017157;28;20718;-85
2021/11/29 01:10:20;;;;;;;9.75;8.82;;;3.00;99.90;;;;;;5024841;28;20210;-82
2021/11/29 01:12:47;;;;;;;9.23;8.20;;;3.00;99.90;;;;;;5020661;28;20190;-82
2021/11/29 01:15:17;;;;;;;9.07;8.38;;;3.00;99.90;;;;;;5017322;28;20211;-82
2021/11/29 01:17:46;;;;;;;12.63;8.77;;;3.00;99.90;;;;;;5014420;28;20202;-82
2021/11/29 01:20:15;;;;;;;11.25;9.02;;;3.00;99.90;;;;;;5016097;28;20210;-83
2021/11/29 01:22:44;;;;;;;8.85;8.00;;;3.00;99.90;;;;;;5023693;28;20199;-81
2021/11/29 01:25:14;;;;;;;8.27;7.57;;;3.00;99.90;;;;;;5020020;28;20221;-82
2021/11/29 01:27:41;;;;;;;9.05;8.15;;;3.00;99.90;;;;;;5026178;28;20221;-84
2021/11/29 01:30:10;;;;;;;12.15;7.97;;;3.00;99.90;;;;;;5018495;28;20196;-82
2021/11/29 01:32:38;;;;;;;11.60;8.63;;;3.00;99.90;;;;;;5019125;28;20205;-84
2021/11/29 01:35:08;;;;;;;8.68;7.88;;;3.00;99.90;;;;;;5018522;28;20195;-82
2021/11/29 01:37:36;;;;;;;9.65;8.52;;;3.00;99.90;;;;;;5024943;28;20199;-84
2021/11/29 01:40:04;;;;;;;9.23;8.38;;;3.00;99.90;;;;;;5020583;28;20195;-82
2021/11/29 01:42:32;;;;;;;9.25;8.32;;;3.00;99.90;;;;;;5020530;28;20548;-82
2021/11/29 01:45:00;;;;;;;8.27;7.57;;;3.00;99.90;;;;;;5020848;28;20187;-82
2021/11/29 01:47:28;;;;;;;8.57;7.75;;;3.00;99.90;;;;;;5018561;28;20231;-84
2021/11/29 01:49:56;;;;;;;9.93;8.90;;;3.00;99.90;;;;;;5024607;28;20190;-84
2021/11/29 01:52:24;;;;;;;7.15;6.55;;;2.90;99.90;;;;;;5018943;28;20563;-82
2021/11/29 01:54:51;;;;;;;8.65;7.90;;;3.00;99.90;;;;;;5018741;28;20305;-82
2021/11/29 01:57:19;;;;;;;9.70;7.32;;;2.90;99.90;;;;;;5020875;28;20212;-82
2021/11/29 01:59:46;;;;;;;9.30;7.15;;;2.90;99.90;;;;;;5018926;28;20191;-82
2021/11/29 02:02:13;;;;;;;7.63;6.90;;;2.90;99.90;;;;;;5021710;28;20201;-84
2021/11/29 02:04:41;;;;;;;10.00;7.40;;;2.90;99.90;;;;;;5020410;28;20215;-85
2021/11/29 02:07:10;;;;;;;8.20;7.40;;;2.90;99.90;;;;;;5016141;28;20187;-82
2021/11/29 02:09:39;;;;;;;10.88;7.13;;;2.80;99.90;;;;;;5017362;28;20197;-84
2021/11/29 02:12:07;;;;;;;7.75;6.45;;;2.80;99.90;;;;;;5021400;28;20204;-82
2021/11/29 02:14:35;;;;;;;7.32;6.63;;;2.80;99.90;;;;;;5018168;28;20318;-84
2021/11/29 02:17:02;;;;;;;8.00;7.20;;;2.80;99.90;;;;;;5014556;28;20197;-84
2021/11/29 02:19:29;;;;;;;7.65;6.20;;;2.80;99.90;;;;;;5014999;28;20481;-82
2021/11/29 02:21:58;;;;;;;8.23;5.97;;;2.80;99.90;;;;;;5021372;28;20497;-83
2021/11/29 02:24:25;;;;;;;9.07;6.68;;;2.70;99.90;;;;;;5018276;28;20221;-85
2021/11/29 02:26:52;;;;;;;7.35;6.65;;;2.70;99.90;;;;;;5021711;28;20535;-82
2021/11/29 02:29:20;;;;;;;7.90;7.13;;;2.70;99.90;;;;;;5022341;28;20682;-83
2021/11/29 02:31:49;;;;;;;7.25;6.65;;;2.70;99.90;;;;;;5023704;28;20195;-82
2021/11/29 02:34:19;;;;;;;9.30;7.10;;;2.70;99.90;;;;;;5017582;28;20662;-84
2021/11/29 02:36:47;;;;;;;8.60;6.93;;;2.70;99.90;;;;;;5020257;28;20204;-82
2021/11/29 02:39:16;;;;;;;8.55;7.68;;;2.70;99.90;;;;;;5015396;28;20245;-82
2021/11/29 02:41:46;;;;;;;7.70;6.90;;;2.70;99.90;;;;;;5020469;28;20217;-83
2021/11/29 02:44:13;;;;;;;6.70;6.10;;;2.70;99.90;;;;;;5018496;28;20197;-84
2021/11/29 02:46:42;;;;;;;6.90;6.10;;;2.70;99.90;;;;;;5017723;28;20186;-82
2021/11/29 02:49:10;;;;;;;8.02;6.72;;;2.80;99.90;;;;;;5018313;28;20231;-82
2021/11/29 02:51:40;;;;;;;5.90;5.40;;;2.80;99.90;;;;;;5017537;28;20210;-82
2021/11/29 02:54:10;;;;;;;6.15;5.63;;;2.80;99.90;;;;;;5017199;28;20190;-83
2021/11/29 02:56:42;;;;;;;7.95;6.85;;;2.80;99.90;;;;;;5021287;28;20198;-84
2021/11/29 02:59:11;;;;;;;6.35;5.75;;;2.80;99.90;;;;;;5019017;28;20285;-82
2021/11/29 03:01:39;;;;;;;7.07;5.50;;;2.90;99.90;;;;;;5019729;28;20700;-82
2021/11/29 03:04:07;;;;;;;6.53;6.03;;;2.90;99.90;;;;;;5017135;28;20218;-83
2021/11/29 03:06:34;;;;;;;5.82;5.35;;;2.90;99.90;;;;;;5025068;28;20198;-82
2021/11/29 03:09:01;;;;;;;5.68;5.18;;;3.00;99.90;;;;;;5017575;28;20221;-82
2021/11/29 03:11:30;;;;;;;5.90;5.45;;;3.00;99.90;;;;;;5020590;28;20646;-81
2021/11/29 03:13:59;;;;;;;6.25;5.65;;;3.00;99.90;;;;;;5022228;28;20203;-85
2021/11/29 03:16:28;;;;;;;8.13;5.28;;;3.10;99.90;;;;;;5018774;28;20225;-84
2021/11/29 03:18:55;;;;;;;5.40;5.00;;;3.10;99.90;;;;;;5019965;28;20236;-81
2021/11/29 03:21:25;;;;;;;6.60;5.22;;;3.10;99.90;;;;;;5019358;28;20209;-83
2021/11/29 03:23:54;;;;;;;5.32;4.80;;;3.10;99.90;;;;;;5017597;28;20751;-82
2021/11/29 03:26:23;;;;;;;5.10;4.38;;;3.20;99.90;;;;;;5014896;28;20199;-82
2021/11/29 03:28:54;;;;;;;6.63;4.93;;;3.20;99.90;;;;;;5015378;28;20216;-82
2021/11/29 03:31:24;;;;;;;6.55;5.95;;;3.20;99.90;;;;;;5021566;28;20665;-85
2021/11/29 03:33:55;;;;;;;7.10;4.93;;;3.20;99.90;;;;;;5015520;28;20222;-81
2021/11/29 03:36:22;;;;;;;8.45;5.25;;;3.20;99.90;;;;;;5011578;28;20286;-85
2021/11/29 03:38:50;;;;;;;5.15;4.78;;;3.20;99.90;;;;;;5016856;28;20597;-82
2021/11/29 03:41:17;;;;;;;4.63;4.22;;;3.20;99.90;;;;;;5016592;28;20198;-82
2021/11/29 03:43:45;;;;;;;4.28;3.88;;;3.20;99.90;;;;;;5019711;28;20682;-83
2021/11/29 03:46:13;;;;;;;4.90;4.40;;;3.10;99.90;;;;;;5019959;28;20202;-84
2021/11/29 03:48:41;;;;;;;6.18;4.28;;;3.20;99.90;;;;;;5019667;28;20218;-82
2021/11/29 03:51:08;;;;;;;4.35;4.05;;;3.10;99.90;;;;;;5021568;28;20406;-82
2021/11/29 03:53:36;;;;;;;6.30;5.25;;;3.20;99.90;;;;;;5016991;28;20199;-82
2021/11/29 03:56:03;;;;;;;4.10;3.70;;;3.20;99.90;;;;;;5016005;28;20191;-82
2021/11/29 03:58:30;;;;;;;4.57;4.18;;;3.20;99.90;;;;;;5020317;28;20201;-82
2021/11/29 04:00:57;;;;;;;4.65;4.20;;;3.10;99.90;;;;;;5008811;28;20218;-82
2021/11/29 04:03:25;;;;;;;7.22;3.97;;;3.10;99.90;;;;;;5011348;28;20549;-82
2021/11/29 04:05:53;;;;;;;4.22;3.92;;;3.10;99.90;;;;;;5014797;28;20275;-82
2021/11/29 04:08:20;;;;;;;4.50;3.90;;;3.10;99.90;;;;;;5020074;28;20228;-82
2021/11/29 04:10:47;;;;;;;3.97;3.67;;;3.20;99.90;;;;;;5016447;28;20194;-82
2021/11/29 04:13:15;;;;;;;5.20;4.03;;;3.20;99.90;;;;;;5017266;28;20217;-84
2021/11/29 04:15:42;;;;;;;5.75;4.05;;;3.20;99.90;;;;;;5016134;28;20193;-84
2021/11/29 04:18:09;;;;;;;4.90;4.40;;;3.20;99.90;;;;;;5019107;28;20197;-85
2021/11/29 04:20:36;;;;;;;4.03;3.72;;;3.10;99.90;;;;;;5018967;28;20283;-83
2021/11/29 04:23:05;;;;;;;4.50;3.80;;;3.20;99.90;;;;;;5017061;28;20250;-82
2021/11/29 04:25:39;;;;;;;4.53;4.20;;;3.10;99.90;;;;;;5019423;28;20199;-85
2021/11/29 04:28:06;;;;;;;4.25;3.95;;;3.20;99.90;;;;;;5018692;28;20309;-82
2021/11/29 04:30:35;;;;;;;7.43;4.22;;;3.10;99.90;;;;;;5006799;28;20235;-84
2021/11/29 04:33:02;;;;;;;6.10;4.30;;;3.20;99.90;;;;;;5023102;28;20561;-82
2021/11/29 04:35:29;;;;;;;4.78;4.35;;;3.10;99.90;;;;;;5019079;28;20193;-82
2021/11/29 04:37:56;;;;;;;4.82;4.43;;;3.10;99.90;;;;;;5023887;28;20210;-83
2021/11/29 04:40:25;;;;;;;4.53;4.13;;;3.10;99.90;;;;;;5022348;28;20522;-82
2021/11/29 04:42:52;;;;;;;4.25;3.85;;;3.20;99.90;;;;;;5025907;28;20217;-82
2021/11/29 04:45:19;;;;;;;4.78;4.47;;;3.10;99.90;;;;;;5025971;28;20227;-85
2021/11/29 04:47:47;;;;;;;5.13;4.60;;;3.20;99.90;;;;;;5022476;28;20300;-84
2021/11/29 04:50:14;;;;;;;5.20;4.80;;;3.20;99.90;;;;;;5026565;28;20222;-84
2021/11/29 04:52:41;;;;;;;6.60;4.30;;;3.20;99.90;;;;;;5023498;28;20200;-83
2021/11/29 04:55:11;;;;;;;6.13;5.22;;;3.20;99.90;;;;;;5023315;28;20622;-83
2021/11/29 04:57:40;;;;;;;5.47;4.55;;;3.20;99.90;;;;;;5022498;28;20226;-82
2021/11/29 05:00:09;;;;;;;5.60;4.93;;;3.20;99.90;;;;;;5019107;28;20363;-83
2021/11/29 05:02:36;;;;;;;6.38;5.78;;;3.20;99.90;;;;;;5017037;28;20207;-83
2021/11/29 05:05:04;;;;;;;5.57;5.07;;;3.20;99.90;;;;;;5014463;28;20190;-83
2021/11/29 05:07:31;;;;;;;6.05;5.40;;;3.20;99.90;;;;;;5015048;28;20200;-83
2021/11/29 05:09:58;;;;;;;6.72;5.65;;;3.20;99.90;;;;;;5018855;28;20698;-83
2021/11/29 05:12:27;;;;;;;7.88;6.70;;;3.20;99.90;;;;;;5021473;28;20248;-82
2021/11/29 05:14:55;;;;;;;7.55;6.95;;;3.20;99.90;;;;;;5021284;28;20229;-83
2021/11/29 05:17:22;;;;;;;7.53;6.72;;;3.30;99.90;;;;;;5027548;28;20191;-82
2021/11/29 05:19:50;;;;;;;9.73;8.07;;;3.30;99.90;;;;;;5018088;28;20725;-82
2021/11/29 05:22:17;;;;;;;7.72;7.03;;;3.30;99.90;;;;;;5026225;28;20277;-83
2021/11/29 05:24:44;;;;;;;8.27;7.57;;;3.20;99.90;;;;;;5024195;28;20223;-85
2021/11/29 05:27:11;;;;;;;8.20;7.40;;;3.20;99.90;;;;;;5023951;28;20195;-84
2021/11/29 05:29:39;;;;;;;9.88;8.30;;;3.20;99.90;;;;;;5015418;28;20327;-82
2021/11/29 05:32:09;;;;;;;8.82;7.93;;;3.20;99.90;;;;;;5023703;28;20251;-82
2021/11/29 05:34:37;;;;;;;9.63;7.80;;;3.30;99.90;;;;;;5021978;28;20207;-86
2021/11/29 05:37:05;;;;;;;8.10;7.40;;;3.20;99.90;;;;;;5022152;28;20200;-81
2021/11/29 05:39:32;;;;;;;10.57;8.15;;;3.20;99.90;;;;;;5024809;28;20215;-83
2021/11/29 05:42:00;;;;;;;9.38;8.45;;;3.20;99.90;;;;;;5022029;28;20304;-82
2021/11/29 05:44:27;;;;;;;8.45;6.95;;;3.20;99.90;;;;;;5019040;28;20195;-84
2021/11/29 05:46:54;;;;;;;9.70;8.52;;;3.30;99.90;;;;;;5012833;28;20207;-83
2021/11/29 05:49:23;;;;;;;7.57;6.90;;;3.30;99.90;;;;;;5014157;28;20290;-84
2021/11/29 05:51:50;;;;;;;6.57;5.97;;;3.30;99.90;;;;;;5019570;28;20211;-83
2021/11/29 05:54:17;;;;;;;9.43;6.30;;;3.30;99.90;;;;;;5022208;28;20282;-84
2021/11/29 05:56:44;;;;;;;6.30;5.75;;;3.30;99.90;;;;;;5017814;28;20238;-84
2021/11/29 05:59:11;;;;;;;5.45;5.05;;;3.30;99.90;;;;;;5017394;28;20679;-82
2021/11/29 06:01:38;;;;;;;6.93;6.32;;;3.30;99.90;;;;;;5017599;28;20639;-83
2021/11/29 06:04:05;;;;;;;8.75;5.47;;;3.30;99.90;;;;;;5019120;28;20230;-86
2021/11/29 06:06:33;;;;;;;6.28;5.78;;;3.40;99.90;;;;;;5024003;28;20191;-84
2021/11/29 06:09:00;;;;;;;6.72;6.22;;;3.30;99.90;;;;;;5020614;28;20228;-83
2021/11/29 06:11:27;;;;;;;6.78;6.20;;;3.30;99.90;;;;;;5014802;28;20538;-84
2021/11/29 06:13:55;;;;;;;6.72;6.13;;;3.40;99.90;;;;;;5017567;28;20205;-84
2021/11/29 06:16:24;;;;;;;6.50;5.90;;;3.40;99.90;;;;;;5020328;28;20222;-84
2021/11/29 06:18:52;;;;;;;7.38;6.15;;;3.40;99.90;;;;;;5010308;28;20193;-83
2021/11/29 06:21:19;;;;;;;9.20;6.72;;;3.40;99.90;;;;;;5014333;28;20198;-84
2021/11/29 06:23:48;;;;;;;7.53;6.80;;;3.40;99.90;;;;;;5011375;28;20192;-83
2021/11/29 06:26:18;;;;;;;12.68;7.30;;;3.40;99.90;;;;;;5021997;28;20199;-82
2021/11/29 06:28:46;;;;;;;13.70;7.15;;;3.30;99.90;;;;;;5018072;28;20246;-82
2021/11/29 06:31:13;;;;;;;8.80;7.30;;;3.40;99.90;;;;;;5013649;28;20199;-83
2021/11/29 06:33:40;;;;;;;8.30;6.72;;;3.30;99.90;;;;;;5011678;28;20203;-82
2021/11/29 06:36:08;;;;;;;8.77;7.88;;;3.30;99.90;;;;;;5015841;28;20202;-84
2021/11/29 06:38:35;;;;;;;9.23;8.18;;;3.30;99.90;;;;;;5017864;28;20199;-84
2021/11/29 06:41:04;;;;;;;9.18;8.38;;;3.30;99.90;;;;;;5009849;28;20218;-82
2021/11/29 06:43:31;;;;;;;8.52;7.65;;;3.30;99.90;;;;;;5019389;28;20601;-83
2021/11/29 06:45:59;;;;;;;11.35;7.93;;;3.30;99.90;;;;;;5009892;28;20302;-83
2021/11/29 06:48:26;;;;;;;9.00;8.10;;;3.30;99.90;;;;;;5012291;28;20631;-82
2021/11/29 06:50:54;;;;;;;11.48;8.15;;;3.30;99.90;;;;;;5013445;28;20654;-83
2021/11/29 06:53:22;;;;;;;9.18;8.20;;;3.30;99.90;;;;;;5008786;28;20265;-83
2021/11/29 06:55:49;;;;;;;10.80;9.63;;;3.30;99.90;;;;;;5013674;28;20208;-83
2021/11/29 06:58:18;;;;;;;11.98;8.40;;;3.30;99.90;;;;;;5016192;28;20208;-83
2021/11/29 07:00:46;;;;;;;12.55;9.05;;;3.30;99.90;;;;;;5015292;28;20322;-83
2021/11/29 07:03:13;;;;;;;10.43;8.05;;;3.30;99.90;;;;;;5017413;28;20569;-84
2021/11/29 07:05:40;;;;;;;11.32;10.05;;;3.30;99.90;;;;;;5012807;28;20203;-83
2021/11/29 07:08:08;;;;;;;15.60;8.45;;;3.40;99.90;;;;;;5012654;28;20215;-82
2021/11/29 07:10:40;;;;;;;11.90;9.18;;;3.40;99.90;;;;;;5021222;28;20223;-83
2021/11/29 07:13:07;;;;;;;12.88;9.25;;;3.30;99.90;;;;;;5012512;28;20281;-83
2021/11/29 07:15:36;;;;;;;12.35;9.07;;;3.30;99.90;;;;;;5013544;28;20200;-83
2021/11/29 07:18:02;;;;;;;9.88;8.55;;;3.40;99.90;;;;;;5013251;28;20406;-85
2021/11/29 07:20:30;;;;;;;11.00;8.30;;;3.30;99.90;;;;;;5017309;28;20322;-82
2021/11/29 07:22:57;;;;;;;9.35;8.18;;;3.40;99.90;;;;;;5012101;28;20553;-82
2021/11/29 07:25:24;;;;;;;10.02;9.02;;;3.30;99.90;;;;;;5019176;28;20195;-85
2021/11/29 07:27:51;;;;;;;11.43;8.95;;;3.30;99.90;;;;;;5007655;28;20198;-83
2021/11/29 07:30:20;;;;;;;9.32;7.97;;;3.40;99.90;;;;;;5018410;28;20251;-85
2021/11/29 07:32:53;;;;;;;12.23;9.38;;;3.40;99.90;;;;;;5014415;28;20194;-85
2021/11/29 07:35:20;;;;;;;14.25;10.40;;;3.40;99.90;;;;;;5016220;28;20199;-83
2021/11/29 07:37:47;;;;;;;13.30;9.15;;;3.40;99.90;;;;;;5011554;28;20564;-82
2021/11/29 07:40:15;;;;;;;10.15;8.75;;;3.30;99.90;;;;;;5014949;28;20257;-82
2021/11/29 07:42:42;;;;;;;10.00;7.47;;;3.30;99.90;;;;;;5009211;28;20199;-82
2021/11/29 07:45:11;;;;;;;11.75;8.32;;;3.40;99.90;;;;;;5009545;28;20204;-84
2021/11/29 07:47:39;;;;;;;8.63;7.72;;;3.40;99.90;;;;;;5007834;28;20307;-83
2021/11/29 07:50:10;;;;;;;12.18;8.00;;;3.30;99.90;;;;;;5010161;28;20219;-83
2021/11/29 07:52:37;;;;;;;11.40;8.38;;;3.40;99.90;;;;;;5005680;28;20205;-83
2021/11/29 07:55:07;;;;;;;8.50;7.68;;;3.40;99.90;;;;;;5005138;28;20187;-83
2021/11/29 07:57:34;;;;;;;10.57;8.88;;;3.40;99.90;;;;;;5011982;28;20233;-85
2021/11/29 08:00:04;;;;;;;11.18;7.38;;;3.40;99.90;;;;;;5009863;28;20577;-84
2021/11/29 08:02:31;;;;;;;9.93;8.27;;;3.40;99.90;;;;;;5008877;28;20209;-83
2021/11/29 08:04:58;;;;;;;12.35;7.97;;;3.40;99.90;;;;;;5014517;28;20771;-83
2021/11/29 08:07:27;;;;;;;11.40;7.95;;;3.40;99.90;;;;;;5018407;28;20282;-82
2021/11/29 08:09:54;;;;;;;13.02;9.32;;;3.50;99.90;;;;;;5018367;28;20255;-84
2021/11/29 08:12:21;;;;;;;9.52;7.53;;;3.50;99.90;;;;;;5015575;28;20558;-82
2021/11/29 08:14:48;;;;;;;10.57;8.38;;;3.50;99.90;;;;;;5012824;28;20663;-84
2021/11/29 08:17:16;;;;;;;11.05;8.90;;;3.50;99.90;;;;;;5011957;28;20214;-83
2021/11/29 08:19:43;;;;;;;12.05;8.55;;;3.50;99.90;;;;;;5010136;28;20302;-84
2021/11/29 08:22:10;;;;;;;12.63;8.65;;;3.50;99.90;;;;;;5014760;28;20208;-82
2021/11/29 08:24:38;;;;;;;11.35;9.15;;;3.50;99.90;;;;;;5009980;28;20194;-83
2021/11/29 08:27:06;;;;;;;9.60;8.70;;;3.50;99.90;;;;;;5012561;28;20199;-83
2021/11/29 08:29:33;;;;;;;11.43;8.95;;;3.50;99.90;;;;;;5018465;28;20230;-82
2021/11/29 08:32:00;;;;;;;10.30;8.77;;;3.60;99.90;;;;;;5019513;28;20669;-82
2021/11/29 08:34:28;;;;;;;10.20;9.20;;;3.60;99.90;;;;;;5014751;28;20250;-82
2021/11/29 08:36:55;;;;;;;11.75;8.48;;;3.60;99.90;;;;;;5009555;28;20195;-83
2021/11/29 08:39:23;;;;;;;9.88;8.73;;;3.60;99.90;;;;;;5018138;28;20230;-82
2021/11/29 08:41:51;;;;;;;13.07;8.85;;;3.70;99.90;;;;;;5011437;28;20202;-82
2021/11/29 08:44:18;;;;;;;11.20;9.60;;;3.70;99.90;;;;;;5014242;28;20195;-82
2021/11/29 08:46:48;;;;;;;11.40;9.20;;;3.70;99.90;;;;;;5015573;28;20200;-82
2021/11/29 08:49:16;;;;;;;11.65;8.95;;;3.70;99.90;;;;;;5011814;28;20269;-83
2021/11/29 08:51:43;;;;;;;14.48;9.27;;;3.70;99.90;;;;;;5011818;28;20200;-84
2021/11/29 08:54:11;;;;;;;15.45;8.48;;;3.80;99.90;;;;;;5010729;28;20204;-82
2021/11/29 08:56:39;;;;;;;16.65;8.93;;;3.80;99.90;;;;;;5011019;28;20669;-82
2021/11/29 08:59:07;;;;;;;11.48;9.15;;;3.80;99.90;;;;;;5010705;28;20207;-83
2021/11/29 09:01:36;;;;;;;9.75;7.55;;;3.80;99.90;;;;;;5012304;28;20323;-81
2021/11/29 09:04:03;;;;;;;9.25;8.27;;;3.90;99.90;;;;;;5009711;28;20197;-82
2021/11/29 09:06:30;;;;;;;10.10;9.10;;;3.90;99.90;;;;;;5012034;28;20602;-81
2021/11/29 09:08:57;;;;;;;9.32;7.85;;;3.90;99.90;;;;;;5016371;28;20213;-82
2021/11/29 09:11:24;;;;;;;10.10;8.73;;;4.00;99.90;;;;;;5013717;28;20234;-82
2021/11/29 09:13:51;;;;;;;11.65;8.25;;;4.00;99.90;;;;;;5017585;28;20197;-82
2021/11/29 09:16:20;;;;;;;12.68;8.43;;;4.00;99.90;;;;;;5020942;28;20713;-83
2021/11/29 09:18:47;;;;;;;12.55;8.05;;;4.00;99.90;;;;;;5014738;28;20814;-81
2021/11/29 09:21:20;;;;;;;22.17;14.70;;;4.10;99.90;;;;;;5015813;28;20241;-82
2021/11/29 09:23:47;;;;;;;18.95;9.98;;;4.10;99.90;;;;;;5016824;28;20203;-84
2021/11/29 09:26:15;;;;;;;10.90;8.52;;;4.10;99.90;;;;;;5018634;28;20199;-82
2021/11/29 09:28:42;;;;;;;11.75;7.57;;;4.20;99.90;;;;;;5022713;28;20201;-82
2021/11/29 09:31:10;;;;;;;9.18;8.25;;;4.20;99.90;;;;;;5019108;28;20618;-82
2021/11/29 09:33:39;;;;;;;9.57;7.40;;;4.20;99.90;;;;;;5017115;28;20213;-81
2021/11/29 09:36:07;;;;;;;17.45;7.95;;;4.30;99.90;;;;;;5016919;28;20211;-83
2021/11/29 09:38:35;;;;;;;12.52;7.22;;;4.30;99.90;;;;;;5013626;28;20698;-81
2021/11/29 09:41:03;;;;;;;9.25;6.82;;;4.30;99.90;;;;;;5012686;28;20200;-81
2021/11/29 09:43:30;;;;;;;7.70;6.32;;;4.30;99.90;;;;;;5022722;28;20201;-84
2021/11/29 09:45:58;;;;;;;8.27;6.90;;;4.40;99.90;;;;;;5014587;28;20551;-80
2021/11/29 09:48:24;;;;;;;12.75;7.10;;;4.40;99.90;;;;;;5023837;28;20226;-84
2021/11/29 09:50:55;;;;;;;7.85;6.22;;;4.40;99.90;;;;;;5017835;28;20228;-83
2021/11/29 09:53:24;;;;;;;9.38;6.70;;;4.50;99.90;;;;;;5012683;28;20294;-81
2021/11/29 09:55:52;;;;;;;7.07;6.10;;;4.40;99.90;;;;;;5017963;28;20222;-81
2021/11/29 09:58:19;;;;;;;8.48;7.00;;;4.50;99.90;;;;;;5019336;28;20204;-81
2021/11/29 10:00:50;;;;;;;7.10;6.40;;;4.50;99.90;;;;;;5017259;28;20230;-83
2021/11/29 10:03:17;;;;;;;7.50;6.55;;;4.60;99.90;;;;;;5013886;28;20283;-81
2021/11/29 10:05:44;;;;;;;9.02;6.22;;;4.60;99.90;;;;;;5019202;28;20218;-84
2021/11/29 10:08:24;;;;;;;7.82;6.68;;;4.60;99.90;;;;;;5017691;28;20284;-81
2021/11/29 10:10:53;;;;;;;6.60;6.00;;;4.60;99.90;;;;;;5022029;28;20774;-83
2021/11/29 10:13:22;;;;;;;6.85;5.95;;;4.60;99.90;;;;;;5017734;28;20200;-83
2021/11/29 10:15:49;;;;;;;7.82;7.00;;;4.60;99.90;;;;;;5020544;28;20188;-84
2021/11/29 10:18:18;;;;;;;7.90;6.40;;;4.70;99.90;;;;;;5015013;28;20650;-82
2021/11/29 10:20:57;;;;;;;7.43;6.28;;;4.70;99.90;;;;;;5017003;28;20228;-81
2021/11/29 10:23:29;;;;;;;8.35;6.60;;;4.70;99.90;;;;;;5015935;28;20666;-82
2021/11/29 10:25:57;;;;;;;6.55;5.53;;;4.70;99.90;;;;;;5015277;28;20201;-84
2021/11/29 10:28:27;;;;;;;9.35;6.35;;;4.70;99.90;;;;;;5016127;28;20240;-81
2021/11/29 10:31:09;;;;;;;9.07;6.25;;;4.70;99.90;;;;;;5015697;28;20252;-82
2021/11/29 10:33:50;;;;;;;13.27;5.60;;;4.70;99.90;;;;;;5017615;28;20681;-84
2021/11/29 10:36:18;;;;;;;8.23;5.80;;;4.80;99.90;;;;;;5020900;28;20202;-83
2021/11/29 10:38:50;;;;;;;8.38;6.05;;;4.80;99.90;;;;;;5021296;28;20197;-82
2021/11/29 10:41:22;;;;;;;8.23;6.47;;;4.80;99.90;;;;;;5016897;28;20664;-80
2021/11/29 10:43:49;;;;;;;6.63;5.90;;;4.80;99.90;;;;;;5020292;28;20539;-80
2021/11/29 10:46:22;;;;;;;7.65;6.85;;;4.90;99.90;;;;;;5015745;28;20204;-80
2021/11/29 10:48:50;;;;;;;6.90;6.28;;;4.90;99.90;;;;;;5018708;28;20216;-80
2021/11/29 10:51:19;;;;;;;8.13;7.35;;;4.90;99.90;;;;;;5019500;28;20242;-82
2021/11/29 10:53:54;;;;;;;7.65;6.57;;;5.00;99.90;;;;;;5016102;28;20219;-80
2021/11/29 10:56:23;;;;;;;10.38;6.78;;;5.00;99.90;;;;;;5013964;28;20312;-80
2021/11/29 10:58:52;;;;;;;6.95;5.53;;;5.00;99.90;;;;;;5008697;28;20201;-80
2021/11/29 11:01:33;;;;;;;9.55;7.03;;;5.00;99.90;;;;;;5013706;28;20228;-80
2021/11/29 11:04:00;;;;;;;14.02;7.20;;;5.10;99.90;;;;;;5015652;28;20201;-80
2021/11/29 11:06:29;;;;;;;13.30;7.65;;;5.10;99.90;;;;;;5010337;28;20232;-81
2021/11/29 11:08:57;;;;;;;7.22;6.53;;;5.10;99.90;;;;;;5018639;28;20198;-82
2021/11/29 11:11:35;;;;;;;8.50;7.07;;;5.10;99.90;;;;;;5014309;28;20319;-80
2021/11/29 11:14:06;;;;;;;8.73;7.05;;;5.20;99.90;;;;;;5015864;28;20196;-80
2021/11/29 11:16:41;;;;;;;7.97;7.15;;;5.20;99.90;;;;;;5012594;28;20206;-81
2021/11/29 11:19:11;;;;;;;8.48;5.90;;;5.30;99.90;;;;;;5014948;28;20197;-79
2021/11/29 11:21:38;;;;;;;8.15;7.35;;;5.30;99.90;;;;;;5007846;28;20208;-80
2021/11/29 11:24:25;;;;;;;6.85;5.68;;;5.30;99.90;;;;;;5009191;28;20202;-81
2021/11/29 11:26:56;;;;;;;12.63;7.38;;;5.30;99.90;;;;;;5011087;28;20422;-81
2021/11/29 11:29:48;;;;;;;7.57;6.88;;;5.30;99.90;;;;;;5016144;28;20204;-80
2021/11/29 11:32:27;;;;;;;12.45;5.93;;;5.40;99.90;;;;;;5002711;28;20234;-80
2021/11/29 11:34:56;;;;;;;12.48;6.50;;;5.40;99.90;;;;;;5012846;28;20630;-80
2021/11/29 11:37:25;;;;;;;8.82;5.68;;;5.50;99.90;;;;;;5020846;28;20288;-80
2021/11/29 11:39:56;;;;;;;8.23;4.38;;;5.50;99.90;;;;;;5010345;28;20208;-81
2021/11/29 11:42:23;;;;;;;6.25;5.10;;;5.50;99.90;;;;;;5013149;28;20225;-80
2021/11/29 11:44:51;;;;;;;5.70;4.88;;;5.60;99.90;;;;;;5019112;28;20202;-79
2021/11/29 11:47:19;;;;;;;9.05;5.82;;;5.60;99.90;;;;;;5014092;28;20205;-80
2021/11/29 11:49:48;;;;;;;10.43;5.53;;;5.60;99.90;;;;;;5016775;28;20209;-80
2021/11/29 11:52:17;;;;;;;7.25;5.53;;;5.70;99.90;;;;;;5017041;28;20229;-80
2021/11/29 11:54:44;;;;;;;6.05;4.85;;;5.70;99.90;;;;;;5013124;28;20195;-82
2021/11/29 11:57:15;;;;;;;6.22;5.07;;;5.70;99.90;;;;;;5014894;28;20293;-80
2021/11/29 12:00:04;;;;;;;10.10;4.70;;;5.80;99.90;;;;;;5014032;28;20289;-79
2021/11/29 12:02:51;;;;;;;8.88;5.95;;;5.80;99.90;;;;;;5012084;28;20198;-80
2021/11/29 12:05:19;;;;;;;9.80;5.80;;;5.80;99.90;;;;;;5000938;28;20643;-80
2021/11/29 12:07:47;;;;;;;11.85;6.93;;;5.90;99.90;;;;;;5013384;28;20205;-82
2021/11/29 12:10:37;;;;;;;8.10;5.55;;;5.90;99.90;;;;;;5003228;28;20197;-81
2021/11/29 12:13:08;;;;;;;9.18;5.40;;;5.90;99.90;;;;;;5016635;28;20554;-80
2021/11/29 12:15:46;;;;;;;6.43;5.65;;;6.00;99.90;;;;;;5017022;28;20198;-80
2021/11/29 12:18:15;;;;;;;10.88;7.00;;;6.00;99.90;;;;;;5014624;28;20202;-80
2021/11/29 12:20:58;;;;;;;8.38;6.03;;;6.00;99.90;;;;;;5018457;28;20209;-81
2021/11/29 12:23:40;;;;;;;15.10;7.43;;;6.10;99.90;;;;;;5016623;28;20198;-81
2021/11/29 12:26:07;;;;;;;17.95;8.23;;;6.10;99.90;;;;;;5019045;28;20190;-80
2021/11/29 12:28:40;;;;;;;10.95;7.55;;;6.10;99.90;;;;;;5021451;28;20201;-80
2021/11/29 12:31:39;;;;;;;12.23;6.93;;;6.10;99.90;;;;;;5015553;28;20229;-80
2021/11/29 12:34:11;;;;;;;24.40;15.13;;;6.10;99.90;;;;;;5020800;28;20198;-80
2021/11/29 12:37:13;;;;;;;18.83;12.07;;;6.10;99.90;;;;;;5016392;28;20645;-81
2021/11/29 12:39:51;;;;;;;14.32;7.28;;;6.10;99.90;;;;;;5014808;28;20204;-80
2021/11/29 12:42:55;;;;;;;18.15;9.50;;;6.10;99.90;;;;;;5018280;28;20200;-81
2021/11/29 12:45:29;;;;;;;19.15;9.02;;;6.20;99.90;;;;;;5013826;28;20194;-80
2021/11/29 12:47:59;;;;;;;16.83;9.10;;;6.20;99.90;;;;;;5015778;28;20222;-80
2021/11/29 12:50:38;;;;;;;15.38;8.50;;;6.20;99.90;;;;;;5013635;28;20226;-83
2021/11/29 12:53:14;;;;;;;12.25;7.97;;;6.20;99.90;;;;;;5016785;28;20198;-80
2021/11/29 12:55:42;;;;;;;10.40;7.93;;;6.20;99.90;;;;;;5016103;28;20196;-82
2021/11/29 12:58:22;;;;;;;11.90;8.02;;;6.20;99.90;;;;;;5023510;28;20201;-81
2021/11/29 13:00:53;;;;;;;11.95;7.75;;;6.20;99.90;;;;;;5013884;28;20249;-83
2021/11/29 13:03:28;;;;;;;12.68;7.80;;;6.20;99.90;;;;;;5012897;28;20289;-81